TimePDT,TemperatureF,Dew PointF,Humidity,Sea Level PressureIn,VisibilityMPH,Wind Direction,Wind SpeedMPH,Gust SpeedMPH,PrecipitationIn,Events,Conditions,WindDirDegrees,DateUTC
12:53 AM,44.1,39.0,82,29.74,10.0,SE,5.8,-,N/A,,Mostly Cloudy,130,2012-10-23 07:53:00
1:53 AM,42.1,37.9,85,29.75,10.0,ESE,5.8,-,N/A,,Mostly Cloudy,120,2012-10-23 08:53:00
2:53 AM,45.0,39.0,80,29.76,10.0,SSW,9.2,-,N/A,,Mostly Cloudy,200,2012-10-23 09:53:00
3:53 AM,44.1,39.9,85,29.77,10.0,South,9.2,-,N/A,,Mostly Cloudy,190,2012-10-23 10:53:00
4:53 AM,45.0,39.9,82,29.78,10.0,Calm,Calm,-,N/A,,Mostly Cloudy,0,2012-10-23 11:53:00
5:53 AM,44.1,39.9,85,29.80,10.0,ESE,3.5,-,N/A,,Overcast,110,2012-10-23 12:53:00
6:47 AM,44.6,39.2,81,29.81,10.0,SSE,3.5,-,N/A,,Overcast,150,2012-10-23 13:47:00
6:53 AM,45.0,39.9,82,29.81,10.0,SSE,3.5,-,N/A,,Overcast,150,2012-10-23 13:53:00
7:22 AM,44.6,39.2,81,29.82,10.0,SSE,8.1,-,N/A,,Overcast,160,2012-10-23 14:22:00
7:53 AM,45.0,39.9,82,29.83,10.0,South,10.4,-,N/A,,Overcast,190,2012-10-23 14:53:00
8:53 AM,45.0,39.9,82,29.85,10.0,South,9.2,-,N/A,,Mostly Cloudy,180,2012-10-23 15:53:00
9:53 AM,46.9,39.9,77,29.86,10.0,South,13.8,-,0.00,Rain,Light Rain,190,2012-10-23 16:53:00
10:53 AM,48.9,41.0,74,29.87,10.0,South,10.4,-,0.00,,Mostly Cloudy,190,2012-10-23 17:53:00
11:53 AM,48.9,39.9,71,29.87,10.0,South,19.6,24.2,0.00,Rain,Light Rain,190,2012-10-23 18:53:00
12:53 PM,51.1,39.9,66,29.88,10.0,SSW,15.0,21.9,0.00,,Overcast,200,2012-10-23 19:53:00
1:53 PM,52.0,39.9,63,29.88,10.0,SSW,15.0,-,N/A,,Overcast,210,2012-10-23 20:53:00
2:26 PM,53.6,39.2,58,29.88,10.0,SSW,13.8,19.6,0.00,,Mostly Cloudy,210,2012-10-23 21:26:00
2:53 PM,52.0,39.0,61,29.88,10.0,SSW,15.0,-,0.00,,Overcast,200,2012-10-23 21:53:00
3:53 PM,51.8,39.2,62,29.88,10.0,South,10.4,-,N/A,,Mostly Cloudy,180,2012-10-23 22:53:00
4:53 PM,48.0,42.1,80,29.89,10.0,South,8.1,-,0.01,,Overcast,170,2012-10-23 23:53:00
5:53 PM,46.9,42.1,83,29.89,10.0,East,10.4,-,N/A,,Overcast,100,2012-10-24 00:53:00
6:53 PM,46.9,42.1,83,29.89,10.0,ESE,8.1,-,0.01,Rain,Light Rain,120,2012-10-24 01:53:00
7:53 PM,46.0,43.0,89,29.88,10.0,SE,8.1,-,0.00,,Overcast,130,2012-10-24 02:53:00
8:53 PM,46.0,44.1,93,29.88,7.0,SE,6.9,-,0.02,Rain,Light Rain,140,2012-10-24 03:53:00
9:53 PM,46.0,44.1,93,29.87,10.0,East,6.9,-,0.03,Rain,Light Rain,100,2012-10-24 04:53:00
10:53 PM,46.4,42.8,87,29.87,8.0,ESE,10.4,-,N/A,Rain,Light Rain,110,2012-10-24 05:53:00
11:25 PM,46.4,44.6,93,29.88,7.0,SE,5.8,-,0.03,Rain,Rain,140,2012-10-24 06:25:00
11:46 PM,46.4,44.6,93,29.88,7.0,SSE,5.8,-,0.06,Rain,Light Rain,150,2012-10-24 06:46:00
11:53 PM,46.0,44.1,93,29.88,7.0,SE,5.8,-,0.07,Rain,Light Rain,130,2012-10-24 06:53:00